sensor_id;sensor_type;location;lat;lon;timestamp;temperature;humidity
15455;DHT22;21057;51.024;7.540;2022-07-31T00:00:16;21.30;89.20
15455;DHT22;21057;51.024;7.540;2022-07-31T00:02:45;21.30;89.60
15455;DHT22;21057;51.024;7.540;2022-07-31T00:05:12;21.20;90.10
15455;DHT22;21057;51.024;7.540;2022-07-31T00:07:39;21.10;90.30
15455;DHT22;21057;51.024;7.540;2022-07-31T00:10:07;20.90;90.40
15455;DHT22;21057;51.024;7.540;2022-07-31T00:12:34;20.90;90.70
15455;DHT22;21057;51.024;7.540;2022-07-31T00:15:01;20.90;90.90
15455;DHT22;21057;51.024;7.540;2022-07-31T00:17:29;20.90;91.10
15455;DHT22;21057;51.024;7.540;2022-07-31T00:19:58;20.90;91.10
15455;DHT22;21057;51.024;7.540;2022-07-31T00:22:25;20.90;91.40
15455;DHT22;21057;51.024;7.540;2022-07-31T00:24:52;20.90;91.30
15455;DHT22;21057;51.024;7.540;2022-07-31T00:27:18;20.80;91.10
15455;DHT22;21057;51.024;7.540;2022-07-31T00:29:45;20.80;91.40
15455;DHT22;21057;51.024;7.540;2022-07-31T00:32:12;20.60;91.70
15455;DHT22;21057;51.024;7.540;2022-07-31T00:34:40;20.50;91.70
15455;DHT22;21057;51.024;7.540;2022-07-31T00:37:08;20.50;91.90
15455;DHT22;21057;51.024;7.540;2022-07-31T00:39:35;20.40;92.30
15455;DHT22;21057;51.024;7.540;2022-07-31T00:42:03;20.40;92.50
15455;DHT22;21057;51.024;7.540;2022-07-31T00:44:31;20.40;92.80
15455;DHT22;21057;51.024;7.540;2022-07-31T00:46:57;20.40;92.60
15455;DHT22;21057;51.024;7.540;2022-07-31T00:49:24;20.40;92.90
15455;DHT22;21057;51.024;7.540;2022-07-31T00:51:51;20.50;92.90
15455;DHT22;21057;51.024;7.540;2022-07-31T00:54:19;20.60;92.10
15455;DHT22;21057;51.024;7.540;2022-07-31T00:56:46;20.60;92.50
15455;DHT22;21057;51.024;7.540;2022-07-31T00:59:13;20.60;92.50
15455;DHT22;21057;51.024;7.540;2022-07-31T01:01:40;20.70;92.60
15455;DHT22;21057;51.024;7.540;2022-07-31T01:04:07;20.80;92.20
15455;DHT22;21057;51.024;7.540;2022-07-31T01:06:34;20.70;91.90
15455;DHT22;21057;51.024;7.540;2022-07-31T01:09:01;20.50;92.00
15455;DHT22;21057;51.024;7.540;2022-07-31T01:11:37;20.50;92.20
15455;DHT22;21057;51.024;7.540;2022-07-31T01:14:08;20.40;92.50
15455;DHT22;21057;51.024;7.540;2022-07-31T01:16:38;20.20;92.80
15455;DHT22;21057;51.024;7.540;2022-07-31T01:19:17;20.10;93.10
15455;DHT22;21057;51.024;7.540;2022-07-31T01:21:53;20.00;93.40
15455;DHT22;21057;51.024;7.540;2022-07-31T01:24:34;19.90;93.70
15455;DHT22;21057;51.024;7.540;2022-07-31T01:27:10;19.80;94.10
15455;DHT22;21057;51.024;7.540;2022-07-31T01:29:46;19.70;94.30
15455;DHT22;21057;51.024;7.540;2022-07-31T01:32:22;19.70;94.30
15455;DHT22;21057;51.024;7.540;2022-07-31T01:34:53;19.70;94.40
15455;DHT22;21057;51.024;7.540;2022-07-31T01:37:22;19.60;94.50
15455;DHT22;21057;51.024;7.540;2022-07-31T01:39:53;19.50;94.90
15455;DHT22;21057;51.024;7.540;2022-07-31T01:42:24;19.50;94.90
15455;DHT22;21057;51.024;7.540;2022-07-31T01:45:00;19.40;95.20
15455;DHT22;21057;51.024;7.540;2022-07-31T01:47:29;19.40;95.30
15455;DHT22;21057;51.024;7.540;2022-07-31T01:49:59;19.40;95.30
15455;DHT22;21057;51.024;7.540;2022-07-31T01:52:28;19.30;95.90
15455;DHT22;21057;51.024;7.540;2022-07-31T01:54:56;19.30;95.70
15455;DHT22;21057;51.024;7.540;2022-07-31T01:57:25;19.30;96.10
15455;DHT22;21057;51.024;7.540;2022-07-31T01:59:55;19.30;95.90
15455;DHT22;21057;51.024;7.540;2022-07-31T02:02:24;19.30;95.90
15455;DHT22;21057;51.024;7.540;2022-07-31T02:04:52;19.30;95.70
15455;DHT22;21057;51.024;7.540;2022-07-31T02:07:20;19.40;95.70
15455;DHT22;21057;51.024;7.540;2022-07-31T02:09:48;19.30;95.90
15455;DHT22;21057;51.024;7.540;2022-07-31T02:12:17;19.20;96.10
15455;DHT22;21057;51.024;7.540;2022-07-31T02:14:45;19.20;96.20
15455;DHT22;21057;51.024;7.540;2022-07-31T02:17:14;19.40;96.20
15455;DHT22;21057;51.024;7.540;2022-07-31T02:19:44;19.30;96.40
15455;DHT22;21057;51.024;7.540;2022-07-31T02:22:11;19.30;96.60
15455;DHT22;21057;51.024;7.540;2022-07-31T02:24:38;19.20;96.80
15455;DHT22;21057;51.024;7.540;2022-07-31T02:27:06;19.20;96.80
15455;DHT22;21057;51.024;7.540;2022-07-31T02:29:34;19.20;96.90
15455;DHT22;21057;51.024;7.540;2022-07-31T02:32:01;19.20;97.30
15455;DHT22;21057;51.024;7.540;2022-07-31T02:34:31;19.20;97.20
15455;DHT22;21057;51.024;7.540;2022-07-31T02:37:01;19.20;97.20
15455;DHT22;21057;51.024;7.540;2022-07-31T02:39:30;19.20;97.40
15455;DHT22;21057;51.024;7.540;2022-07-31T02:41:58;19.20;97.20
15455;DHT22;21057;51.024;7.540;2022-07-31T02:44:26;19.20;97.10
15455;DHT22;21057;51.024;7.540;2022-07-31T02:46:54;19.10;97.30
15455;DHT22;21057;51.024;7.540;2022-07-31T02:49:22;19.10;97.50
15455;DHT22;21057;51.024;7.540;2022-07-31T02:51:51;19.20;97.40
15455;DHT22;21057;51.024;7.540;2022-07-31T02:54:20;19.10;97.30
15455;DHT22;21057;51.024;7.540;2022-07-31T02:56:47;19.20;97.30
15455;DHT22;21057;51.024;7.540;2022-07-31T02:59:14;19.00;97.30
15455;DHT22;21057;51.024;7.540;2022-07-31T03:01:41;18.90;97.60
15455;DHT22;21057;51.024;7.540;2022-07-31T03:04:08;18.80;97.80
15455;DHT22;21057;51.024;7.540;2022-07-31T03:06:35;18.70;97.90
15455;DHT22;21057;51.024;7.540;2022-07-31T03:09:03;18.80;97.90
15455;DHT22;21057;51.024;7.540;2022-07-31T03:11:30;18.80;97.60
15455;DHT22;21057;51.024;7.540;2022-07-31T03:14:00;18.80;97.70
15455;DHT22;21057;51.024;7.540;2022-07-31T03:16:29;18.70;97.80
15455;DHT22;21057;51.024;7.540;2022-07-31T03:18:57;18.70;97.90
15455;DHT22;21057;51.024;7.540;2022-07-31T03:21:24;18.60;98.10
15455;DHT22;21057;51.024;7.540;2022-07-31T03:23:51;18.60;98.20
15455;DHT22;21057;51.024;7.540;2022-07-31T03:26:20;18.60;98.10
15455;DHT22;21057;51.024;7.540;2022-07-31T03:28:47;18.60;98.20
15455;DHT22;21057;51.024;7.540;2022-07-31T03:31:14;18.60;98.30
15455;DHT22;21057;51.024;7.540;2022-07-31T03:33:41;18.70;98.50
15455;DHT22;21057;51.024;7.540;2022-07-31T03:36:08;18.60;98.60
15455;DHT22;21057;51.024;7.540;2022-07-31T03:38:35;18.60;98.90
15455;DHT22;21057;51.024;7.540;2022-07-31T03:41:02;18.70;99.00
15455;DHT22;21057;51.024;7.540;2022-07-31T03:43:31;18.70;98.90
15455;DHT22;21057;51.024;7.540;2022-07-31T03:46:00;18.70;99.00
15455;DHT22;21057;51.024;7.540;2022-07-31T03:48:28;18.80;98.90
15455;DHT22;21057;51.024;7.540;2022-07-31T03:50:56;18.80;98.90
15455;DHT22;21057;51.024;7.540;2022-07-31T03:53:23;18.70;99.20
15455;DHT22;21057;51.024;7.540;2022-07-31T03:55:51;18.80;99.20
15455;DHT22;21057;51.024;7.540;2022-07-31T03:58:19;19.00;99.00
15455;DHT22;21057;51.024;7.540;2022-07-31T04:00:49;18.80;99.50
15455;DHT22;21057;51.024;7.540;2022-07-31T04:03:16;19.00;99.40
15455;DHT22;21057;51.024;7.540;2022-07-31T04:05:43;19.00;99.30
15455;DHT22;21057;51.024;7.540;2022-07-31T04:08:10;19.00;99.40
15455;DHT22;21057;51.024;7.540;2022-07-31T04:10:37;19.10;98.80
15455;DHT22;21057;51.024;7.540;2022-07-31T04:13:04;19.20;98.90
15455;DHT22;21057;51.024;7.540;2022-07-31T04:15:32;19.20;98.60
15455;DHT22;21057;51.024;7.540;2022-07-31T04:18:00;19.20;98.80
15455;DHT22;21057;51.024;7.540;2022-07-31T04:20:27;19.30;98.70
15455;DHT22;21057;51.024;7.540;2022-07-31T04:22:54;19.30;98.80
15455;DHT22;21057;51.024;7.540;2022-07-31T04:25:21;19.20;98.60
15455;DHT22;21057;51.024;7.540;2022-07-31T04:27:48;19.30;98.50
15455;DHT22;21057;51.024;7.540;2022-07-31T04:30:15;19.50;97.90
15455;DHT22;21057;51.024;7.540;2022-07-31T04:32:42;19.60;98.30
15455;DHT22;21057;51.024;7.540;2022-07-31T04:35:10;19.50;98.70
15455;DHT22;21057;51.024;7.540;2022-07-31T04:37:38;19.50;98.40
15455;DHT22;21057;51.024;7.540;2022-07-31T04:40:06;19.50;98.50
15455;DHT22;21057;51.024;7.540;2022-07-31T04:42:35;19.50;98.70
15455;DHT22;21057;51.024;7.540;2022-07-31T04:45:02;19.50;97.80
15455;DHT22;21057;51.024;7.540;2022-07-31T04:47:29;19.50;97.20
15455;DHT22;21057;51.024;7.540;2022-07-31T04:49:56;19.60;97.30
15455;DHT22;21057;51.024;7.540;2022-07-31T04:52:24;19.50;97.70
15455;DHT22;21057;51.024;7.540;2022-07-31T04:54:51;19.60;97.80
15455;DHT22;21057;51.024;7.540;2022-07-31T04:57:18;19.50;97.30
15455;DHT22;21057;51.024;7.540;2022-07-31T04:59:45;19.50;97.10
15455;DHT22;21057;51.024;7.540;2022-07-31T05:02:12;19.70;96.80
15455;DHT22;21057;51.024;7.540;2022-07-31T05:04:39;19.80;97.50
15455;DHT22;21057;51.024;7.540;2022-07-31T05:07:06;19.80;97.60
15455;DHT22;21057;51.024;7.540;2022-07-31T05:09:34;19.80;97.70
15455;DHT22;21057;51.024;7.540;2022-07-31T05:12:01;19.90;98.90
15455;DHT22;21057;51.024;7.540;2022-07-31T05:14:28;19.90;98.90
15455;DHT22;21057;51.024;7.540;2022-07-31T05:16:55;20.00;99.00
15455;DHT22;21057;51.024;7.540;2022-07-31T05:19:22;20.00;99.90
15455;DHT22;21057;51.024;7.540;2022-07-31T05:21:54;19.90;99.20
15455;DHT22;21057;51.024;7.540;2022-07-31T05:24:22;19.90;98.70
15455;DHT22;21057;51.024;7.540;2022-07-31T05:26:50;20.00;98.20
15455;DHT22;21057;51.024;7.540;2022-07-31T05:29:17;20.20;97.60
15455;DHT22;21057;51.024;7.540;2022-07-31T05:31:44;20.10;98.70
15455;DHT22;21057;51.024;7.540;2022-07-31T05:34:11;20.00;99.00
15455;DHT22;21057;51.024;7.540;2022-07-31T05:36:38;19.90;98.30
15455;DHT22;21057;51.024;7.540;2022-07-31T05:39:05;19.90;99.60
15455;DHT22;21057;51.024;7.540;2022-07-31T05:41:34;19.90;98.80
15455;DHT22;21057;51.024;7.540;2022-07-31T05:44:02;20.00;98.70
15455;DHT22;21057;51.024;7.540;2022-07-31T05:46:29;20.20;98.10
15455;DHT22;21057;51.024;7.540;2022-07-31T05:48:57;20.30;97.90
15455;DHT22;21057;51.024;7.540;2022-07-31T05:51:24;20.20;98.70
15455;DHT22;21057;51.024;7.540;2022-07-31T05:53:51;20.20;99.10
15455;DHT22;21057;51.024;7.540;2022-07-31T05:56:18;20.20;99.60
15455;DHT22;21057;51.024;7.540;2022-07-31T05:58:45;20.30;99.40
15455;DHT22;21057;51.024;7.540;2022-07-31T06:01:13;20.20;98.70
15455;DHT22;21057;51.024;7.540;2022-07-31T06:03:40;20.30;98.70
15455;DHT22;21057;51.024;7.540;2022-07-31T06:06:07;20.30;98.10
15455;DHT22;21057;51.024;7.540;2022-07-31T06:08:34;20.40;97.90
15455;DHT22;21057;51.024;7.540;2022-07-31T06:11:00;20.40;98.30
15455;DHT22;21057;51.024;7.540;2022-07-31T06:13:28;20.50;97.50
15455;DHT22;21057;51.024;7.540;2022-07-31T06:15:56;20.50;97.90
15455;DHT22;21057;51.024;7.540;2022-07-31T06:18:24;20.60;98.60
15455;DHT22;21057;51.024;7.540;2022-07-31T06:20:51;20.60;98.10
15455;DHT22;21057;51.024;7.540;2022-07-31T06:23:18;20.70;97.60
15455;DHT22;21057;51.024;7.540;2022-07-31T06:25:45;20.80;97.20
15455;DHT22;21057;51.024;7.540;2022-07-31T06:28:12;21.00;97.20
15455;DHT22;21057;51.024;7.540;2022-07-31T06:30:39;21.20;96.90
15455;DHT22;21057;51.024;7.540;2022-07-31T06:33:06;21.20;96.90
15455;DHT22;21057;51.024;7.540;2022-07-31T06:35:34;21.40;96.40
15455;DHT22;21057;51.024;7.540;2022-07-31T06:38:01;21.40;96.50
15455;DHT22;21057;51.024;7.540;2022-07-31T06:40:28;21.40;96.50
15455;DHT22;21057;51.024;7.540;2022-07-31T06:42:55;21.50;96.20
15455;DHT22;21057;51.024;7.540;2022-07-31T06:45:22;21.60;96.40
15455;DHT22;21057;51.024;7.540;2022-07-31T06:47:50;21.50;95.80
15455;DHT22;21057;51.024;7.540;2022-07-31T06:50:16;21.50;95.70
15455;DHT22;21057;51.024;7.540;2022-07-31T06:52:45;21.50;94.80
15455;DHT22;21057;51.024;7.540;2022-07-31T06:55:12;21.90;93.90
15455;DHT22;21057;51.024;7.540;2022-07-31T06:57:38;21.80;95.30
15455;DHT22;21057;51.024;7.540;2022-07-31T07:00:07;21.70;95.60
15455;DHT22;21057;51.024;7.540;2022-07-31T07:02:35;21.90;95.20
15455;DHT22;21057;51.024;7.540;2022-07-31T07:05:03;21.90;94.90
15455;DHT22;21057;51.024;7.540;2022-07-31T07:07:30;22.00;93.90
15455;DHT22;21057;51.024;7.540;2022-07-31T07:09:58;22.10;93.00
15455;DHT22;21057;51.024;7.540;2022-07-31T07:12:25;22.10;93.10
15455;DHT22;21057;51.024;7.540;2022-07-31T07:14:52;22.20;93.90
15455;DHT22;21057;51.024;7.540;2022-07-31T07:17:19;22.50;94.20
15455;DHT22;21057;51.024;7.540;2022-07-31T07:19:46;22.50;93.20
15455;DHT22;21057;51.024;7.540;2022-07-31T07:22:13;22.60;92.40
15455;DHT22;21057;51.024;7.540;2022-07-31T07:24:40;22.80;92.40
15455;DHT22;21057;51.024;7.540;2022-07-31T07:27:09;23.00;92.10
15455;DHT22;21057;51.024;7.540;2022-07-31T07:29:36;23.20;91.60
15455;DHT22;21057;51.024;7.540;2022-07-31T07:32:03;23.30;92.80
15455;DHT22;21057;51.024;7.540;2022-07-31T07:34:30;23.30;91.50
15455;DHT22;21057;51.024;7.540;2022-07-31T07:36:57;23.00;91.60
15455;DHT22;21057;51.024;7.540;2022-07-31T07:39:24;23.20;91.70
15455;DHT22;21057;51.024;7.540;2022-07-31T07:41:51;23.30;92.00
15455;DHT22;21057;51.024;7.540;2022-07-31T07:44:20;23.20;91.20
15455;DHT22;21057;51.024;7.540;2022-07-31T07:46:46;23.20;91.30
15455;DHT22;21057;51.024;7.540;2022-07-31T07:49:13;23.20;91.50
15455;DHT22;21057;51.024;7.540;2022-07-31T07:51:41;23.00;91.30
15455;DHT22;21057;51.024;7.540;2022-07-31T07:54:08;22.70;92.10
15455;DHT22;21057;51.024;7.540;2022-07-31T07:56:35;22.90;92.20
15455;DHT22;21057;51.024;7.540;2022-07-31T07:59:02;22.70;92.00
15455;DHT22;21057;51.024;7.540;2022-07-31T08:01:30;22.60;92.10
15455;DHT22;21057;51.024;7.540;2022-07-31T08:03:57;22.80;91.90
15455;DHT22;21057;51.024;7.540;2022-07-31T08:06:24;22.90;92.10
15455;DHT22;21057;51.024;7.540;2022-07-31T08:08:51;23.00;92.30
15455;DHT22;21057;51.024;7.540;2022-07-31T08:11:18;23.10;91.60
15455;DHT22;21057;51.024;7.540;2022-07-31T08:13:45;23.20;92.00
15455;DHT22;21057;51.024;7.540;2022-07-31T08:16:12;23.10;91.90
15455;DHT22;21057;51.024;7.540;2022-07-31T08:18:41;23.20;92.00
15455;DHT22;21057;51.024;7.540;2022-07-31T08:21:08;23.20;92.30
15455;DHT22;21057;51.024;7.540;2022-07-31T08:23:35;23.30;91.40
15455;DHT22;21057;51.024;7.540;2022-07-31T08:26:02;23.20;91.50
15455;DHT22;21057;51.024;7.540;2022-07-31T08:28:30;23.30;91.80
15455;DHT22;21057;51.024;7.540;2022-07-31T08:30:57;23.40;91.20
15455;DHT22;21057;51.024;7.540;2022-07-31T08:33:24;23.30;91.90
15455;DHT22;21057;51.024;7.540;2022-07-31T08:35:52;23.30;92.10
15455;DHT22;21057;51.024;7.540;2022-07-31T08:38:19;23.40;92.40
15455;DHT22;21057;51.024;7.540;2022-07-31T08:40:46;23.30;91.80
15455;DHT22;21057;51.024;7.540;2022-07-31T08:43:13;23.30;92.10
15455;DHT22;21057;51.024;7.540;2022-07-31T08:45:41;23.30;92.40
15455;DHT22;21057;51.024;7.540;2022-07-31T08:48:08;23.40;91.80
15455;DHT22;21057;51.024;7.540;2022-07-31T08:50:38;23.50;92.70
15455;DHT22;21057;51.024;7.540;2022-07-31T08:53:07;23.60;92.10
15455;DHT22;21057;51.024;7.540;2022-07-31T08:55:35;23.80;91.70
15455;DHT22;21057;51.024;7.540;2022-07-31T08:58:03;24.00;91.30
15455;DHT22;21057;51.024;7.540;2022-07-31T09:00:30;24.30;92.50
15455;DHT22;21057;51.024;7.540;2022-07-31T09:02:58;24.50;91.10
15455;DHT22;21057;51.024;7.540;2022-07-31T09:05:25;24.30;90.80
15455;DHT22;21057;51.024;7.540;2022-07-31T09:07:52;24.40;91.70
15455;DHT22;21057;51.024;7.540;2022-07-31T09:10:23;24.40;91.20
15455;DHT22;21057;51.024;7.540;2022-07-31T09:12:50;24.10;90.40
15455;DHT22;21057;51.024;7.540;2022-07-31T09:15:22;24.10;91.10
15455;DHT22;21057;51.024;7.540;2022-07-31T09:17:50;24.00;91.50
15455;DHT22;21057;51.024;7.540;2022-07-31T09:20:20;23.90;91.40
15455;DHT22;21057;51.024;7.540;2022-07-31T09:22:52;24.00;91.50
15455;DHT22;21057;51.024;7.540;2022-07-31T09:25:19;24.20;91.00
15455;DHT22;21057;51.024;7.540;2022-07-31T09:27:47;24.20;90.70
15455;DHT22;21057;51.024;7.540;2022-07-31T09:30:17;24.10;91.40
15455;DHT22;21057;51.024;7.540;2022-07-31T09:32:44;23.90;90.90
15455;DHT22;21057;51.024;7.540;2022-07-31T09:35:12;23.90;90.80
15455;DHT22;21057;51.024;7.540;2022-07-31T09:37:40;24.00;91.80
15455;DHT22;21057;51.024;7.540;2022-07-31T09:40:11;24.70;91.90
15455;DHT22;21057;51.024;7.540;2022-07-31T09:42:40;24.80;91.00
15455;DHT22;21057;51.024;7.540;2022-07-31T09:45:21;25.20;90.80
15455;DHT22;21057;51.024;7.540;2022-07-31T09:48:02;25.40;89.90
15455;DHT22;21057;51.024;7.540;2022-07-31T09:50:30;24.80;89.10
15455;DHT22;21057;51.024;7.540;2022-07-31T09:52:57;24.80;90.30
15455;DHT22;21057;51.024;7.540;2022-07-31T09:55:25;24.40;89.80
15455;DHT22;21057;51.024;7.540;2022-07-31T09:57:53;24.10;91.20
15455;DHT22;21057;51.024;7.540;2022-07-31T10:00:23;23.80;91.10
15455;DHT22;21057;51.024;7.540;2022-07-31T10:02:52;24.00;90.70
15455;DHT22;21057;51.024;7.540;2022-07-31T10:05:21;24.10;90.70
15455;DHT22;21057;51.024;7.540;2022-07-31T10:07:49;24.20;91.00
15455;DHT22;21057;51.024;7.540;2022-07-31T10:10:16;24.70;90.10
15455;DHT22;21057;51.024;7.540;2022-07-31T10:12:47;24.90;88.60
15455;DHT22;21057;51.024;7.540;2022-07-31T10:15:16;24.80;88.10
15455;DHT22;21057;51.024;7.540;2022-07-31T10:17:47;24.80;88.20
15455;DHT22;21057;51.024;7.540;2022-07-31T10:20:17;24.90;86.90
15455;DHT22;21057;51.024;7.540;2022-07-31T10:22:48;25.00;86.40
15455;DHT22;21057;51.024;7.540;2022-07-31T10:25:19;25.30;88.00
15455;DHT22;21057;51.024;7.540;2022-07-31T10:27:47;25.60;84.80
15455;DHT22;21057;51.024;7.540;2022-07-31T10:30:14;26.00;85.10
15455;DHT22;21057;51.024;7.540;2022-07-31T10:32:42;25.90;83.60
15455;DHT22;21057;51.024;7.540;2022-07-31T10:35:11;25.80;84.00
15455;DHT22;21057;51.024;7.540;2022-07-31T10:37:42;26.00;85.40
15455;DHT22;21057;51.024;7.540;2022-07-31T10:40:19;25.90;84.50
15455;DHT22;21057;51.024;7.540;2022-07-31T10:42:54;25.60;83.80
15455;DHT22;21057;51.024;7.540;2022-07-31T10:45:26;25.60;86.40
15455;DHT22;21057;51.024;7.540;2022-07-31T10:47:57;26.00;85.80
15455;DHT22;21057;51.024;7.540;2022-07-31T10:50:27;26.20;84.70
15455;DHT22;21057;51.024;7.540;2022-07-31T10:53:06;26.20;82.90
15455;DHT22;21057;51.024;7.540;2022-07-31T10:55:33;25.50;84.30
15455;DHT22;21057;51.024;7.540;2022-07-31T10:58:06;25.30;86.10
15455;DHT22;21057;51.024;7.540;2022-07-31T11:00:34;25.60;84.80
15455;DHT22;21057;51.024;7.540;2022-07-31T11:03:12;25.70;84.90
15455;DHT22;21057;51.024;7.540;2022-07-31T11:05:51;25.80;84.60
15455;DHT22;21057;51.024;7.540;2022-07-31T11:08:18;26.20;83.70
15455;DHT22;21057;51.024;7.540;2022-07-31T11:10:49;26.40;84.50
15455;DHT22;21057;51.024;7.540;2022-07-31T11:13:16;26.70;82.50
15455;DHT22;21057;51.024;7.540;2022-07-31T11:15:44;26.70;78.80
15455;DHT22;21057;51.024;7.540;2022-07-31T11:18:12;26.50;79.20
15455;DHT22;21057;51.024;7.540;2022-07-31T11:20:41;26.60;79.90
15455;DHT22;21057;51.024;7.540;2022-07-31T11:23:12;26.90;80.90
15455;DHT22;21057;51.024;7.540;2022-07-31T11:25:42;28.20;80.50
15455;DHT22;21057;51.024;7.540;2022-07-31T11:28:10;28.40;74.70
15455;DHT22;21057;51.024;7.540;2022-07-31T11:30:53;29.00;74.20
15455;DHT22;21057;51.024;7.540;2022-07-31T11:33:35;29.50;72.60
15455;DHT22;21057;51.024;7.540;2022-07-31T11:36:09;29.50;70.90
15455;DHT22;21057;51.024;7.540;2022-07-31T11:38:37;29.90;71.30
15455;DHT22;21057;51.024;7.540;2022-07-31T11:41:04;29.10;69.80
15455;DHT22;21057;51.024;7.540;2022-07-31T11:43:31;28.90;73.20
15455;DHT22;21057;51.024;7.540;2022-07-31T11:46:00;29.40;73.50
15455;DHT22;21057;51.024;7.540;2022-07-31T11:48:27;29.90;72.30
15455;DHT22;21057;51.024;7.540;2022-07-31T11:50:56;30.00;70.10
15455;DHT22;21057;51.024;7.540;2022-07-31T11:53:25;30.10;68.50
15455;DHT22;21057;51.024;7.540;2022-07-31T11:55:54;29.60;70.20
15455;DHT22;21057;51.024;7.540;2022-07-31T11:58:22;29.40;71.90
15455;DHT22;21057;51.024;7.540;2022-07-31T12:00:51;29.50;70.00
15455;DHT22;21057;51.024;7.540;2022-07-31T12:03:19;29.60;71.40
15455;DHT22;21057;51.024;7.540;2022-07-31T12:05:47;29.70;69.30
15455;DHT22;21057;51.024;7.540;2022-07-31T12:08:15;30.00;71.70
15455;DHT22;21057;51.024;7.540;2022-07-31T12:10:44;29.90;66.60
15455;DHT22;21057;51.024;7.540;2022-07-31T12:13:12;29.00;70.90
15455;DHT22;21057;51.024;7.540;2022-07-31T12:15:40;28.80;69.90
15455;DHT22;21057;51.024;7.540;2022-07-31T12:18:07;28.50;69.80
15455;DHT22;21057;51.024;7.540;2022-07-31T12:20:34;28.40;72.40
15455;DHT22;21057;51.024;7.540;2022-07-31T12:23:03;28.10;73.10
15455;DHT22;21057;51.024;7.540;2022-07-31T12:25:40;27.70;74.00
15455;DHT22;21057;51.024;7.540;2022-07-31T12:28:12;27.40;74.30
15455;DHT22;21057;51.024;7.540;2022-07-31T12:30:39;27.80;74.30
15455;DHT22;21057;51.024;7.540;2022-07-31T12:33:08;28.20;73.50
15455;DHT22;21057;51.024;7.540;2022-07-31T12:35:36;28.90;73.10
15455;DHT22;21057;51.024;7.540;2022-07-31T12:38:03;29.30;70.20
15455;DHT22;21057;51.024;7.540;2022-07-31T12:40:31;29.80;69.90
15455;DHT22;21057;51.024;7.540;2022-07-31T12:42:58;29.60;67.80
15455;DHT22;21057;51.024;7.540;2022-07-31T12:45:34;29.20;67.20
15455;DHT22;21057;51.024;7.540;2022-07-31T12:48:03;28.40;66.00
15455;DHT22;21057;51.024;7.540;2022-07-31T12:50:31;28.70;68.00
15455;DHT22;21057;51.024;7.540;2022-07-31T12:53:00;28.60;69.70
15455;DHT22;21057;51.024;7.540;2022-07-31T12:55:30;28.20;66.50
15455;DHT22;21057;51.024;7.540;2022-07-31T12:57:57;28.30;67.70
15455;DHT22;21057;51.024;7.540;2022-07-31T13:00:26;28.10;67.90
15455;DHT22;21057;51.024;7.540;2022-07-31T13:02:55;28.30;68.30
15455;DHT22;21057;51.024;7.540;2022-07-31T13:05:23;28.40;67.90
15455;DHT22;21057;51.024;7.540;2022-07-31T13:07:50;28.20;67.90
15455;DHT22;21057;51.024;7.540;2022-07-31T13:10:17;28.10;67.90
15455;DHT22;21057;51.024;7.540;2022-07-31T13:12:45;28.50;65.80
15455;DHT22;21057;51.024;7.540;2022-07-31T13:15:15;29.30;66.70
15455;DHT22;21057;51.024;7.540;2022-07-31T13:17:42;29.40;64.40
15455;DHT22;21057;51.024;7.540;2022-07-31T13:20:11;29.40;66.50
15455;DHT22;21057;51.024;7.540;2022-07-31T13:22:38;29.30;67.20
15455;DHT22;21057;51.024;7.540;2022-07-31T13:25:05;30.30;68.20
15455;DHT22;21057;51.024;7.540;2022-07-31T13:27:32;30.20;66.10
15455;DHT22;21057;51.024;7.540;2022-07-31T13:29:59;29.40;66.30
15455;DHT22;21057;51.024;7.540;2022-07-31T13:32:26;29.30;68.10
15455;DHT22;21057;51.024;7.540;2022-07-31T13:34:53;29.20;68.00
15455;DHT22;21057;51.024;7.540;2022-07-31T13:37:22;28.70;68.30
15455;DHT22;21057;51.024;7.540;2022-07-31T13:39:49;28.80;69.80
15455;DHT22;21057;51.024;7.540;2022-07-31T13:42:15;29.20;68.10
15455;DHT22;21057;51.024;7.540;2022-07-31T13:44:42;28.80;70.20
15455;DHT22;21057;51.024;7.540;2022-07-31T13:47:09;28.70;70.40
15455;DHT22;21057;51.024;7.540;2022-07-31T13:49:36;28.20;71.90
15455;DHT22;21057;51.024;7.540;2022-07-31T13:52:04;28.30;71.70
15455;DHT22;21057;51.024;7.540;2022-07-31T13:54:32;28.10;71.80
15455;DHT22;21057;51.024;7.540;2022-07-31T13:56:59;28.20;72.60
15455;DHT22;21057;51.024;7.540;2022-07-31T13:59:26;28.40;73.20
15455;DHT22;21057;51.024;7.540;2022-07-31T14:01:53;28.20;71.50
15455;DHT22;21057;51.024;7.540;2022-07-31T14:04:21;28.40;73.30
15455;DHT22;21057;51.024;7.540;2022-07-31T14:06:48;28.60;72.90
15455;DHT22;21057;51.024;7.540;2022-07-31T14:09:14;28.60;73.60
15455;DHT22;21057;51.024;7.540;2022-07-31T14:11:43;28.20;74.40
15455;DHT22;21057;51.024;7.540;2022-07-31T14:14:10;27.90;74.00
15455;DHT22;21057;51.024;7.540;2022-07-31T14:16:37;28.50;77.30
15455;DHT22;21057;51.024;7.540;2022-07-31T14:19:04;28.90;74.70
15455;DHT22;21057;51.024;7.540;2022-07-31T14:21:30;29.00;74.10
15455;DHT22;21057;51.024;7.540;2022-07-31T14:23:59;28.90;73.60
15455;DHT22;21057;51.024;7.540;2022-07-31T14:26:26;28.70;73.60
15455;DHT22;21057;51.024;7.540;2022-07-31T14:28:54;28.70;74.40
15455;DHT22;21057;51.024;7.540;2022-07-31T14:31:22;28.80;74.50
15455;DHT22;21057;51.024;7.540;2022-07-31T14:33:49;28.90;73.40
15455;DHT22;21057;51.024;7.540;2022-07-31T14:36:16;28.60;74.00
15455;DHT22;21057;51.024;7.540;2022-07-31T14:38:43;28.20;73.80
15455;DHT22;21057;51.024;7.540;2022-07-31T14:41:10;28.10;75.40
15455;DHT22;21057;51.024;7.540;2022-07-31T14:43:37;27.80;76.10
15455;DHT22;21057;51.024;7.540;2022-07-31T14:46:06;27.40;76.70
15455;DHT22;21057;51.024;7.540;2022-07-31T14:48:33;27.30;79.20
15455;DHT22;21057;51.024;7.540;2022-07-31T14:51:00;27.40;78.40
15455;DHT22;21057;51.024;7.540;2022-07-31T14:53:27;27.40;78.40
15455;DHT22;21057;51.024;7.540;2022-07-31T14:55:54;27.40;77.90
15455;DHT22;21057;51.024;7.540;2022-07-31T14:58:21;27.20;79.60
15455;DHT22;21057;51.024;7.540;2022-07-31T15:00:47;27.30;79.60
15455;DHT22;21057;51.024;7.540;2022-07-31T15:03:16;27.10;79.00
15455;DHT22;21057;51.024;7.540;2022-07-31T15:05:43;26.80;81.00
15455;DHT22;21057;51.024;7.540;2022-07-31T15:08:10;26.80;81.10
15455;DHT22;21057;51.024;7.540;2022-07-31T15:10:37;26.70;81.10
15455;DHT22;21057;51.024;7.540;2022-07-31T15:13:03;26.30;82.00
15455;DHT22;21057;51.024;7.540;2022-07-31T15:15:30;26.20;84.30
15455;DHT22;21057;51.024;7.540;2022-07-31T15:17:57;25.60;87.50
15455;DHT22;21057;51.024;7.540;2022-07-31T15:20:26;25.10;90.10
15455;DHT22;21057;51.024;7.540;2022-07-31T15:22:53;25.20;89.90
15455;DHT22;21057;51.024;7.540;2022-07-31T15:25:20;25.30;90.10
15455;DHT22;21057;51.024;7.540;2022-07-31T15:27:47;25.50;90.00
15455;DHT22;21057;51.024;7.540;2022-07-31T15:30:14;25.70;89.00
15455;DHT22;21057;51.024;7.540;2022-07-31T15:32:42;26.20;88.50
15455;DHT22;21057;51.024;7.540;2022-07-31T15:35:11;27.00;87.70